Ashbury, Pennsylvania
Current Conditions -  °F | °C
As of 5:35 PM on Sunday 28 Dec 2014 (Local Time) from KHZL Reporting Station
Overcast Overcast  
Wind Chill:   Ceiling: 1500
Heat Index:   Visibility: 10mi
Dew Point:   Wind: 5mph
Humidity: 81%   Direction: 350°N
Pressure: 30"   Gusts: NA
Location:  41.1114°N, 76.3684°W
Report Text: KHZL 282235Z AUTO 35004KT 10SM OVC015 05/02 A3000 RMK AO2
Loading
Personal Weather Stations






























Interactive Weather Map New forecast layout! Learn more

10-Day Weather Forecast

Advertisements
Track Severe Weather on mobile